Wetterdaten: Woche 18.07.16 - 24.07.16 (KW29)
Datum Zeit Temp. A. Feuchte A. Luftdruck Regen Wind Richtung Taupunkt Windchill Windben
18.07.2016 00:00 19,6 C 79 % 1017,9 hPa 0,0 l/m 10,1 km/h N 15,9 C 18,2 C 22,1 km/h
18.07.2016 01:00 19,8 C 78 % 1017,5 hPa 0,0 l/m 11,9 km/h N 15,7 C 17,8 C 25,3 km/h
18.07.2016 02:00 19,6 C 78 % 1017,6 hPa 0,0 l/m 9,8 km/h N 15,6 C 18,2 C 23,7 km/h
18.07.2016 03:00 19,5 C 78 % 1017,7 hPa 0,0 l/m 7,3 km/h N 15,5 C 19,0 C 20,1 km/h
18.07.2016 04:00 19,2 C 78 % 1017,7 hPa 0,0 l/m 6,5 km/h N 15,3 C 18,8 C 17,7 km/h
18.07.2016 05:00 18,8 C 80 % 1018,0 hPa 0,0 l/m 4,6 km/h N 15,2 C 18,8 C 13,7 km/h
18.07.2016 06:00 18,9 C 80 % 1018,3 hPa 0,0 l/m 4,1 km/h N 15,4 C 18,9 C 13,3 km/h
18.07.2016 07:00 19,6 C 80 % 1018,4 hPa 0,0 l/m 4,1 km/h N 16,0 C 19,6 C 14,1 km/h
18.07.2016 08:00 21,1 C 76 % 1018,6 hPa 0,0 l/m 5,5 km/h N 16,8 C 21,1 C 18,5 km/h
18.07.2016 09:00 22,3 C 73 % 1018,4 hPa 0,0 l/m 6,9 km/h N 17,3 C 22,1 C 20,5 km/h
18.07.2016 10:00 23,4 C 68 % 1018,5 hPa 0,0 l/m 5,4 km/h N 17,2 C 23,4 C 18,9 km/h
18.07.2016 11:00 24,3 C 67 % 1018,2 hPa 0,0 l/m 5,7 km/h N 17,7 C 24,2 C 19,7 km/h
18.07.2016 12:00 25,1 C 64 % 1017,9 hPa 0,0 l/m 8,4 km/h N 17,7 C 24,7 C 23,3 km/h
18.07.2016 13:00 25,5 C 64 % 1017,3 hPa 0,0 l/m 5,4 km/h N 18,1 C 25,5 C 22,9 km/h
18.07.2016 14:00 25,2 C 67 % 1017,3 hPa 0,0 l/m 7,4 km/h N 18,5 C 24,9 C 22,9 km/h
18.07.2016 15:00 26,1 C 60 % 1017,0 hPa 0,0 l/m 9,7 km/h N 17,6 C 25,4 C 27,0 km/h
18.07.2016 16:00 26,0 C 59 % 1016,8 hPa 0,0 l/m 8,1 km/h N 17,3 C 25,7 C 22,5 km/h
18.07.2016 17:00 26,1 C 56 % 1016,6 hPa 0,0 l/m 5,9 km/h N 16,7 C 26,1 C 18,9 km/h
18.07.2016 18:00 26,8 C 53 % 1016,5 hPa 0,0 l/m 4,7 km/h N 16,4 C 26,8 C 16,9 km/h
18.07.2016 19:00 26,8 C 53 % 1016,7 hPa 0,0 l/m 2,5 km/h N 16,3 C 26,8 C 11,3 km/h
18.07.2016 20:00 25,3 C 58 % 1017,1 hPa 0,0 l/m 0,8 km/h N 16,3 C 25,3 C 4,4 km/h
18.07.2016 21:00 22,3 C 66 % 1017,9 hPa 0,0 l/m 0,0 km/h N 15,6 C 22,3 C 1,6 km/h
18.07.2016 22:00 21,2 C 71 % 1018,3 hPa 0,0 l/m 0,3 km/h N 15,8 C 21,2 C 2,0 km/h
18.07.2016 23:00 21,4 C 69 % 1019,0 hPa 0,0 l/m 0,7 km/h N 15,4 C 21,4 C 7,2 km/h
19.07.2016 00:00 20,8 C 66 % 1019,5 hPa 0,0 l/m 0,3 km/h N 14,3 C 20,8 C 4,4 km/h
19.07.2016 01:00 19,5 C 70 % 1020,0 hPa 0,0 l/m 0,0 km/h N 14,0 C 19,5 C 0,4 km/h
19.07.2016 02:00 18,4 C 77 % 1020,1 hPa 0,0 l/m 0,0 km/h N 14,1 C 18,4 C 0,4 km/h
19.07.2016 03:00 18,3 C 75 % 1020,0 hPa 0,0 l/m 0,0 km/h N 13,8 C 18,3 C 0,4 km/h
19.07.2016 04:00 17,7 C 76 % 1019,9 hPa 0,0 l/m 0,0 km/h N 13,3 C 17,7 C 0,0 km/h
19.07.2016 05:00 16,2 C 79 % 1020,0 hPa 0,0 l/m 0,0 km/h N 12,4 C 16,2 C 0,0 km/h
19.07.2016 06:00 15,6 C 82 % 1020,0 hPa 0,0 l/m 0,0 km/h N 12,5 C 15,6 C 0,0 km/h
19.07.2016 07:00 16,3 C 82 % 1020,3 hPa 0,0 l/m 0,0 km/h N 13,2 C 16,3 C 0,0 km/h
19.07.2016 08:00 17,5 C 82 % 1020,4 hPa 0,0 l/m 0,0 km/h N 14,4 C 17,5 C 0,4 km/h
19.07.2016 09:00 20,9 C 77 % 1020,0 hPa 0,0 l/m 0,1 km/h N 16,5 C 20,9 C 2,4 km/h
19.07.2016 10:00 24,0 C 64 % 1019,7 hPa 0,0 l/m 3,8 km/h N 16,7 C 24,0 C 13,7 km/h
19.07.2016 11:00 25,0 C 59 % 1019,6 hPa 0,0 l/m 5,5 km/h N 16,3 C 25,0 C 18,5 km/h
19.07.2016 12:00 25,9 C 57 % 1019,3 hPa 0,0 l/m 6,4 km/h N 16,7 C 25,8 C 18,9 km/h
19.07.2016 13:00 26,4 C 55 % 1019,0 hPa 0,0 l/m 5,5 km/h N 16,6 C 26,4 C 17,3 km/h
19.07.2016 14:00 26,9 C 53 % 1018,7 hPa 0,0 l/m 6,4 km/h N 16,3 C 26,8 C 22,1 km/h
19.07.2016 15:00 26,4 C 54 % 1018,5 hPa 0,0 l/m 4,9 km/h N 16,2 C 26,4 C 15,3 km/h
19.07.2016 16:00 26,9 C 52 % 1018,2 hPa 0,0 l/m 6,2 km/h N 16,1 C 26,8 C 17,3 km/h
19.07.2016 17:00 27,3 C 50 % 1017,9 hPa 0,0 l/m 6,1 km/h N 15,9 C 27,3 C 19,7 km/h
19.07.2016 18:00 27,5 C 48 % 1017,8 hPa 0,0 l/m 5,4 km/h N 15,6 C 27,5 C 16,9 km/h
19.07.2016 19:00 26,9 C 51 % 1017,7 hPa 0,0 l/m 1,6 km/h N 15,8 C 26,9 C 11,7 km/h
19.07.2016 20:00 25,5 C 56 % 1017,7 hPa 0,0 l/m 0,2 km/h N 16,0 C 25,5 C 2,8 km/h
19.07.2016 21:00 22,5 C 65 % 1018,0 hPa 0,0 l/m 0,0 km/h N 15,6 C 22,5 C 0,0 km/h
19.07.2016 22:00 20,9 C 72 % 1018,3 hPa 0,0 l/m 0,0 km/h N 15,7 C 20,9 C 0,0 km/h
19.07.2016 23:00 20,5 C 74 % 1018,0 hPa 0,0 l/m 0,0 km/h N 15,7 C 20,5 C 2,0 km/h
20.07.2016 00:00 20,1 C 75 % 1018,1 hPa 0,0 l/m 0,0 km/h N 15,5 C 20,1 C 2,0 km/h
20.07.2016 01:00 19,6 C 77 % 1018,2 hPa 0,0 l/m 0,0 km/h N 15,4 C 19,6 C 0,0 km/h
20.07.2016 02:00 18,6 C 78 % 1018,2 hPa 0,0 l/m 0,0 km/h N 14,7 C 18,6 C 0,0 km/h
20.07.2016 03:00 17,6 C 80 % 1018,3 hPa 0,0 l/m 0,0 km/h N 14,1 C 17,6 C 0,0 km/h
20.07.2016 04:00 17,3 C 82 % 1018,2 hPa 0,0 l/m 0,0 km/h N 14,1 C 17,3 C 0,0 km/h
20.07.2016 05:00 17,3 C 82 % 1018,3 hPa 0,0 l/m 0,0 km/h N 14,2 C 17,3 C 0,0 km/h
20.07.2016 06:00 17,4 C 82 % 1018,4 hPa 0,0 l/m 0,0 km/h N 14,3 C 17,4 C 0,8 km/h
20.07.2016 07:00 18,6 C 80 % 1018,6 hPa 0,0 l/m 0,2 km/h N 15,1 C 18,6 C 2,4 km/h
20.07.2016 08:00 20,8 C 74 % 1018,4 hPa 0,0 l/m 0,3 km/h N 16,0 C 20,8 C 4,0 km/h
20.07.2016 09:00 23,4 C 65 % 1018,3 hPa 0,0 l/m 0,3 km/h N 16,4 C 23,4 C 5,2 km/h
20.07.2016 10:00 24,4 C 60 % 1017,9 hPa 0,0 l/m 0,4 km/h N 16,1 C 24,4 C 4,0 km/h
20.07.2016 11:00 25,3 C 59 % 1017,5 hPa 0,0 l/m 1,0 km/h N 16,6 C 25,3 C 8,4 km/h
20.07.2016 12:00 25,4 C 60 % 1017,3 hPa 0,0 l/m 2,0 km/h N 16,9 C 25,4 C 10,9 km/h
20.07.2016 13:00 25,7 C 58 % 1017,0 hPa 0,0 l/m 3,1 km/h N 16,7 C 25,7 C 12,5 km/h
20.07.2016 14:00 26,5 C 55 % 1016,5 hPa 0,0 l/m 2,7 km/h N 16,7 C 26,5 C 12,5 km/h
20.07.2016 15:00 26,8 C 54 % 1016,2 hPa 0,0 l/m 2,3 km/h N 16,7 C 26,8 C 11,7 km/h
20.07.2016 16:00 26,2 C 55 % 1015,8 hPa 0,0 l/m 1,6 km/h N 16,4 C 26,2 C 9,3 km/h
20.07.2016 17:00 26,6 C 55 % 1015,4 hPa 0,0 l/m 1,4 km/h N 16,7 C 26,6 C 9,7 km/h
20.07.2016 18:00 27,7 C 53 % 1015,1 hPa 0,0 l/m 0,8 km/h N 17,1 C 27,7 C 6,0 km/h
20.07.2016 19:00 27,8 C 51 % 1014,9 hPa 0,0 l/m 0,3 km/h N 16,7 C 27,8 C 5,2 km/h
20.07.2016 20:00 25,9 C 55 % 1015,2 hPa 0,0 l/m 0,1 km/h N 16,2 C 25,9 C 2,0 km/h
20.07.2016 21:00 22,9 C 62 % 1015,6 hPa 0,0 l/m 0,0 km/h N 15,3 C 22,9 C 0,4 km/h
20.07.2016 22:00 20,5 C 71 % 1015,8 hPa 0,0 l/m 0,0 km/h N 15,0 C 20,5 C 0,0 km/h
20.07.2016 23:00 18,9 C 76 % 1015,8 hPa 0,0 l/m 0,0 km/h N 14,6 C 18,9 C 0,0 km/h
21.07.2016 00:00 17,7 C 79 % 1016,0 hPa 0,0 l/m 0,0 km/h N 13,9 C 17,7 C 0,0 km/h
21.07.2016 01:00 16,9 C 80 % 1015,8 hPa 0,0 l/m 0,0 km/h N 13,4 C 16,9 C 0,0 km/h
21.07.2016 02:00 16,2 C 81 % 1015,5 hPa 0,0 l/m 0,0 km/h N 13,0 C 16,2 C 0,0 km/h
21.07.2016 03:00 15,7 C 82 % 1015,4 hPa 0,0 l/m 0,0 km/h N 12,6 C 15,7 C 0,0 km/h
21.07.2016 04:00 15,3 C 82 % 1015,3 hPa 0,0 l/m 0,0 km/h N 12,3 C 15,3 C 0,4 km/h
21.07.2016 05:00 15,4 C 82 % 1015,1 hPa 0,0 l/m 0,0 km/h N 12,3 C 15,4 C 0,8 km/h
21.07.2016 06:00 15,4 C 82 % 1014,9 hPa 0,0 l/m 0,0 km/h N 12,4 C 15,4 C 0,0 km/h
21.07.2016 07:00 16,7 C 82 % 1014,7 hPa 0,0 l/m 0,0 km/h N 13,6 C 16,7 C 0,0 km/h
21.07.2016 08:00 19,8 C 80 % 1014,6 hPa 0,0 l/m 0,3 km/h N 16,2 C 19,8 C 4,0 km/h
21.07.2016 09:00 24,1 C 67 % 1014,5 hPa 0,0 l/m 0,9 km/h N 17,6 C 24,1 C 5,6 km/h
21.07.2016 10:00 25,6 C 65 % 1014,6 hPa 0,0 l/m 0,3 km/h N 18,4 C 25,6 C 4,8 km/h
21.07.2016 11:00 27,9 C 59 % 1014,7 hPa 0,0 l/m 0,4 km/h N 19,0 C 27,9 C 6,0 km/h
21.07.2016 12:00 28,8 C 56 % 1014,4 hPa 0,0 l/m 0,6 km/h N 19,1 C 28,8 C 5,2 km/h
21.07.2016 13:00 29,9 C 53 % 1014,0 hPa 0,0 l/m 0,4 km/h N 19,1 C 29,9 C 6,0 km/h
21.07.2016 14:00 29,9 C 54 % 1013,5 hPa 0,0 l/m 0,3 km/h N 19,5 C 29,9 C 4,8 km/h
21.07.2016 15:00 29,2 C 52 % 1013,2 hPa 0,0 l/m 3,2 km/h N 18,1 C 29,2 C 12,5 km/h
21.07.2016 16:00 28,8 C 54 % 1012,9 hPa 0,0 l/m 1,3 km/h N 18,5 C 28,8 C 9,3 km/h
21.07.2016 17:00 28,0 C 60 % 1012,8 hPa 0,0 l/m 0,7 km/h N 19,3 C 28,0 C 7,3 km/h
21.07.2016 18:00 27,8 C 61 % 1012,7 hPa 0,0 l/m 0,5 km/h N 19,6 C 27,8 C 5,6 km/h
21.07.2016 19:00 27,9 C 64 % 1012,6 hPa 0,0 l/m 0,0 km/h N 20,5 C 27,9 C 0,8 km/h
21.07.2016 20:00 26,3 C 67 % 1012,5 hPa 0,0 l/m 0,0 km/h N 19,7 C 26,3 C 0,4 km/h
21.07.2016 21:00 24,1 C 73 % 1013,0 hPa 0,0 l/m 0,0 km/h N 18,9 C 24,1 C 1,6 km/h
21.07.2016 22:00 23,1 C 76 % 1013,0 hPa 0,0 l/m 0,0 km/h N 18,5 C 23,1 C 0,0 km/h
21.07.2016 23:00 22,3 C 79 % 1013,0 hPa 0,0 l/m 0,0 km/h N 18,4 C 22,3 C 1,2 km/h
22.07.2016 00:00 22,1 C 80 % 1013,5 hPa 0,0 l/m 1,0 km/h N 18,4 C 22,1 C 8,1 km/h
22.07.2016 01:00 21,8 C 79 % 1013,7 hPa 0,0 l/m 0,4 km/h N 17,9 C 21,8 C 4,0 km/h
22.07.2016 02:00 21,0 C 79 % 1013,8 hPa 0,0 l/m 0,0 km/h N 17,2 C 21,0 C 0,0 km/h
22.07.2016 03:00 20,4 C 81 % 1013,6 hPa 0,3 l/m 0,0 km/h N 17,0 C 20,4 C 0,8 km/h
22.07.2016 04:00 20,3 C 82 % 1013,0 hPa 0,3 l/m 1,4 km/h N 17,0 C 20,3 C 7,7 km/h
22.07.2016 05:00 19,8 C 81 % 1013,6 hPa 0,0 l/m 0,2 km/h N 16,5 C 19,8 C 4,0 km/h
22.07.2016 06:00 19,7 C 82 % 1014,0 hPa 0,0 l/m 0,1 km/h N 16,5 C 19,7 C 2,0 km/h
22.07.2016 07:00 20,0 C 82 % 1014,6 hPa 0,0 l/m 0,0 km/h N 16,8 C 20,0 C 0,4 km/h
22.07.2016 08:00 20,7 C 82 % 1014,8 hPa 0,0 l/m 0,0 km/h N 17,5 C 20,7 C 0,8 km/h
22.07.2016 09:00 22,0 C 81 % 1014,9 hPa 0,0 l/m 1,4 km/h N 18,6 C 22,0 C 6,8 km/h
22.07.2016 10:00 23,0 C 79 % 1014,8 hPa 0,3 l/m 3,2 km/h N 19,1 C 23,0 C 13,3 km/h
22.07.2016 11:00 24,2 C 75 % 1014,6 hPa 0,0 l/m 4,5 km/h N 19,5 C 24,2 C 14,5 km/h
22.07.2016 12:00 25,5 C 71 % 1014,4 hPa 0,0 l/m 2,3 km/h N 19,9 C 25,5 C 11,3 km/h
22.07.2016 13:00 25,6 C 70 % 1014,4 hPa 0,0 l/m 5,2 km/h N 19,7 C 25,6 C 17,3 km/h
22.07.2016 14:00 26,6 C 64 % 1014,1 hPa 0,0 l/m 4,0 km/h N 19,3 C 26,6 C 12,9 km/h
22.07.2016 15:00 27,1 C 62 % 1013,6 hPa 0,0 l/m 2,2 km/h N 19,1 C 27,1 C 8,9 km/h
22.07.2016 16:00 27,1 C 60 % 1013,3 hPa 0,0 l/m 1,1 km/h N 18,5 C 27,1 C 6,8 km/h
22.07.2016 17:00 27,5 C 57 % 1013,0 hPa 0,0 l/m 0,2 km/h N 18,1 C 27,5 C 4,0 km/h
22.07.2016 18:00 28,9 C 54 % 1012,8 hPa 0,0 l/m 0,3 km/h N 18,6 C 28,9 C 3,2 km/h
22.07.2016 19:00 29,0 C 53 % 1012,9 hPa 0,0 l/m 0,6 km/h N 18,3 C 29,0 C 5,2 km/h
22.07.2016 20:00 27,0 C 63 % 1013,3 hPa 0,0 l/m 0,1 km/h N 19,2 C 27,0 C 1,2 km/h
22.07.2016 21:00 24,4 C 72 % 1013,8 hPa 0,0 l/m 0,0 km/h N 18,9 C 24,4 C 0,0 km/h
22.07.2016 22:00 22,6 C 77 % 1013,6 hPa 0,0 l/m 0,0 km/h N 18,4 C 22,6 C 0,0 km/h
22.07.2016 23:00 21,8 C 80 % 1013,7 hPa 0,0 l/m 0,0 km/h N 18,2 C 21,8 C 0,0 km/h
23.07.2016 00:00 21,8 C 81 % 1014,6 hPa 2,6 l/m 0,4 km/h N 18,4 C 21,8 C 5,2 km/h
23.07.2016 01:00 21,2 C 82 % 1014,3 hPa 2,3 l/m 0,0 km/h N 17,9 C 21,2 C 0,8 km/h
23.07.2016 02:00 20,6 C 81 % 1014,2 hPa 0,0 l/m 0,0 km/h N 17,2 C 20,6 C 1,2 km/h
23.07.2016 03:00 20,2 C 82 % 1014,0 hPa 0,0 l/m 0,0 km/h N 17,0 C 20,2 C 0,0 km/h
23.07.2016 04:00 20,2 C 81 % 1014,0 hPa 0,0 l/m 0,0 km/h N 16,9 C 20,2 C 0,0 km/h
23.07.2016 05:00 19,8 C 82 % 1014,3 hPa 0,0 l/m 0,0 km/h N 16,5 C 19,8 C 0,4 km/h
23.07.2016 06:00 19,7 C 81 % 1014,4 hPa 0,0 l/m 0,0 km/h N 16,3 C 19,7 C 1,2 km/h
23.07.2016 07:00 20,0 C 81 % 1014,8 hPa 0,0 l/m 0,0 km/h N 16,6 C 20,0 C 1,2 km/h
23.07.2016 08:00 21,0 C 80 % 1015,3 hPa 0,0 l/m 0,0 km/h N 17,4 C 21,0 C 0,8 km/h
23.07.2016 09:00 21,9 C 82 % 1015,5 hPa 0,0 l/m 0,6 km/h N 18,6 C 21,9 C 4,8 km/h
23.07.2016 10:00 24,6 C 77 % 1015,5 hPa 0,0 l/m 0,2 km/h N 20,2 C 24,6 C 3,2 km/h
23.07.2016 11:00 26,3 C 72 % 1015,4 hPa 0,0 l/m 0,3 km/h N 20,7 C 26,3 C 4,8 km/h
23.07.2016 12:00 28,4 C 65 % 1015,2 hPa 0,0 l/m 0,6 km/h N 21,2 C 28,4 C 6,0 km/h
23.07.2016 13:00 29,6 C 60 % 1015,1 hPa 0,0 l/m 0,5 km/h N 20,9 C 29,6 C 4,8 km/h
23.07.2016 14:00 30,0 C 61 % 1014,8 hPa 0,0 l/m 0,9 km/h N 21,5 C 30,0 C 6,8 km/h
23.07.2016 15:00 29,6 C 56 % 1014,6 hPa 0,0 l/m 0,7 km/h N 19,9 C 29,6 C 7,2 km/h
23.07.2016 16:00 28,8 C 57 % 1014,3 hPa 0,0 l/m 0,5 km/h N 19,5 C 28,8 C 6,0 km/h
23.07.2016 17:00 28,7 C 59 % 1014,0 hPa 0,0 l/m 0,3 km/h N 20,0 C 28,7 C 3,6 km/h
23.07.2016 18:00 29,3 C 59 % 1013,7 hPa 0,0 l/m 0,3 km/h N 20,4 C 29,3 C 3,6 km/h
23.07.2016 19:00 29,4 C 59 % 1013,6 hPa 0,0 l/m 0,2 km/h N 20,5 C 29,4 C 4,4 km/h
23.07.2016 20:00 28,0 C 62 % 1013,7 hPa 0,0 l/m 0,0 km/h N 20,0 C 28,0 C 0,8 km/h
23.07.2016 21:00 25,4 C 71 % 1014,0 hPa 0,0 l/m 0,0 km/h N 19,6 C 25,4 C 0,0 km/h
23.07.2016 22:00 23,3 C 77 % 1014,1 hPa 0,0 l/m 0,0 km/h N 19,1 C 23,3 C 0,0 km/h
23.07.2016 23:00 22,1 C 80 % 1014,3 hPa 0,0 l/m 0,0 km/h N 18,4 C 22,1 C 0,0 km/h
24.07.2016 00:00 21,4 C 81 % 1014,1 hPa 0,0 l/m 0,0 km/h N 18,0 C 21,4 C 0,4 km/h
24.07.2016 01:00 21,2 C 81 % 1014,4 hPa 0,0 l/m 0,0 km/h N 17,8 C 21,2 C 0,0 km/h
24.07.2016 02:00 21,5 C 81 % 1014,8 hPa 0,0 l/m 0,8 km/h N 18,1 C 21,5 C 6,4 km/h
24.07.2016 03:00 22,0 C 80 % 1015,2 hPa 1,0 l/m 1,1 km/h N 18,3 C 22,0 C 8,0 km/h
24.07.2016 04:00 20,6 C 81 % 1015,5 hPa 4,7 l/m 2,7 km/h N 17,2 C 20,6 C 10,2 km/h
24.07.2016 05:00 20,1 C 81 % 1015,5 hPa 3,4 l/m 2,2 km/h N 16,8 C 20,1 C 9,3 km/h
24.07.2016 06:00 20,0 C 82 % 1015,5 hPa 1,6 l/m 3,4 km/h N 16,9 C 20,0 C 14,5 km/h
24.07.2016 07:00 20,4 C 82 % 1015,8 hPa 0,5 l/m 0,0 km/h N 17,2 C 20,4 C 1,2 km/h
24.07.2016 08:00 22,3 C 80 % 1016,0 hPa 0,0 l/m 4,5 km/h N 18,6 C 22,3 C 15,7 km/h
24.07.2016 09:00 24,5 C 73 % 1015,9 hPa 0,0 l/m 5,6 km/h N 19,4 C 24,4 C 17,7 km/h
24.07.2016 10:00 25,3 C 72 % 1016,3 hPa 0,0 l/m 7,1 km/h N 19,8 C 25,1 C 21,3 km/h
24.07.2016 11:00 25,6 C 70 % 1016,4 hPa 0,0 l/m 7,9 km/h N 19,7 C 25,3 C 19,7 km/h
24.07.2016 12:00 26,4 C 68 % 1016,2 hPa 0,0 l/m 7,2 km/h N 20,1 C 26,2 C 22,1 km/h
24.07.2016 13:00 27,4 C 66 % 1016,0 hPa 0,0 l/m 6,4 km/h N 20,4 C 27,3 C 22,1 km/h
24.07.2016 14:00 27,9 C 62 % 1015,8 hPa 0,0 l/m 6,8 km/h N 20,0 C 27,9 C 20,5 km/h
24.07.2016 15:00 27,8 C 61 % 1015,6 hPa 0,0 l/m 7,4 km/h N 19,7 C 27,7 C 20,5 km/h
24.07.2016 16:00 27,8 C 63 % 1015,2 hPa 0,0 l/m 4,9 km/h N 19,9 C 27,7 C 16,9 km/h
24.07.2016 17:00 27,8 C 63 % 1015,2 hPa 0,0 l/m 3,0 km/h N 20,1 C 27,8 C 12,5 km/h
24.07.2016 18:00 27,7 C 62 % 1015,0 hPa 0,0 l/m 1,6 km/h N 19,7 C 27,7 C 8,9 km/h
24.07.2016 19:00 27,9 C 61 % 1015,1 hPa 0,0 l/m 0,7 km/h N 19,6 C 27,9 C 5,6 km/h
24.07.2016 20:00 27,3 C 64 % 1015,3 hPa 0,0 l/m 0,1 km/h N 19,7 C 27,3 C 1,2 km/h
24.07.2016 21:00 25,5 C 72 % 1015,7 hPa 0,0 l/m 0,0 km/h N 19,9 C 25,5 C 0,4 km/h
24.07.2016 22:00 23,9 C 76 % 1015,8 hPa 0,0 l/m 0,0 km/h N 19,4 C 23,9 C 2,0 km/h
24.07.2016 23:00 23,0 C 78 % 1016,1 hPa 0,0 l/m 0,0 km/h N 18,8 C 23,0 C 0,8 km/h
Min-Datum _ 21.07.16 19.07.16 21.07.16 - 18.07.16 - 21.07.16 21.07.16 18.07.16
_ Min-Zeit 05:45 18:00 20:30 - 20:30 - 05:45 05:45 20:30
Minimum _ 15,2 C 47 % 1012,4 hPa - 0,0 km/h - 12,1 C 15,2 C 0,0 km/h
Max-Datum _ 21.07.16 19.07.16 19.07.16 24.07.16 18.07.16 - 23.07.16 23.07.16 18.07.16
_ Max-Zeit 13:30 06:15 07:45 04:16 01:30 - 14:30 14:45 02:15
Maximum _ 30,3 C 82 % 1020,4 hPa 4,7 l/m 13,5 km/h
N
- 21,9 C 30,3 C 30,6 km/h
N
Durchschnitt _ 23,3 C 70 % 1016,0 hPa #16,9 l/m 1,9 km/h N 17,2 C 23,2 C 7,3 km/h